Time,TemperatureF,DewpointF,PressureIn,WindDirection,WindDirectionDegrees,WindSpeedMPH,WindSpeedGustMPH,Humidity,HourlyPrecipIn,Conditions,Clouds,dailyrainin,SoftwareType,DateUTC
2013-12-12 00:05:00,32.4,23.4,30.23,East,91,0.0,0.0,69,0.00,,,0.00,Wunderground v.1.15,2013-12-12 05:05:00,
2013-12-12 00:10:00,33.4,23.6,30.23,NE,40,0.0,0.0,67,0.00,,,0.00,Wunderground v.1.15,2013-12-12 05:10:00,
2013-12-12 00:15:00,34.7,24.1,30.23,NNE,22,0.0,0.0,65,0.00,,,0.00,Wunderground v.1.15,2013-12-12 05:15:00,
2013-12-12 00:25:00,35.9,23.4,30.23,NNE,22,0.0,0.0,60,0.00,,,0.00,Wunderground v.1.15,2013-12-12 05:25:00,
2013-12-12 00:35:00,37.4,23.5,30.23,East,85,0.0,0.0,57,0.00,,,0.00,Wunderground v.1.15,2013-12-12 05:35:00,
2013-12-12 00:45:00,38.8,23.1,30.23,NE,34,6.0,10.0,53,0.00,,,0.00,Wunderground v.1.15,2013-12-12 05:45:00,
2013-12-12 00:55:00,39.4,22.8,30.23,NNE,17,7.0,7.0,51,0.00,,,0.00,Wunderground v.1.15,2013-12-12 05:55:00,
2013-12-12 01:05:00,39.5,22.8,30.23,NNE,28,7.0,7.0,51,0.00,,,0.00,Wunderground v.1.15,2013-12-12 06:05:00,
2013-12-12 01:15:00,39.5,21.4,30.23,NE,51,9.0,9.0,48,0.00,,,0.00,Wunderground v.1.15,2013-12-12 06:15:00,
2013-12-12 01:20:00,39.5,20.9,30.23,NNE,14,10.0,12.0,47,0.00,,,0.00,Wunderground v.1.15,2013-12-12 06:20:00,
2013-12-12 01:30:00,39.7,19.0,30.23,North,360,12.0,13.0,43,0.00,,,0.00,Wunderground v.1.15,2013-12-12 06:30:00,
2013-12-12 01:40:00,39.3,20.2,30.23,North,360,8.0,8.0,46,0.00,,,0.00,Wunderground v.1.15,2013-12-12 06:40:00,
2013-12-12 01:50:00,38.5,20.0,30.24,NE,56,5.0,6.0,47,0.00,,,0.00,Wunderground v.1.15,2013-12-12 06:50:00,
2013-12-12 02:00:00,38.0,20.0,30.24,NNE,28,7.0,7.0,48,0.00,,,0.00,Wunderground v.1.15,2013-12-12 07:00:00,
2013-12-12 02:10:00,37.4,20.0,30.24,NNE,26,5.0,5.0,49,0.00,,,0.00,Wunderground v.1.15,2013-12-12 07:10:00,
2013-12-12 02:20:00,36.8,20.3,30.25,NNE,26,4.0,7.0,51,0.00,,,0.00,Wunderground v.1.15,2013-12-12 07:20:00,
2013-12-12 02:25:00,36.6,20.2,30.25,NE,43,4.0,7.0,51,0.00,,,0.00,Wunderground v.1.15,2013-12-12 07:25:00,
2013-12-12 02:35:00,36.4,20.4,30.25,NNE,28,4.0,5.0,52,0.00,,,0.00,Wunderground v.1.15,2013-12-12 07:35:00,
2013-12-12 02:45:00,36.1,20.6,30.25,NNE,20,4.0,5.0,53,0.00,,,0.00,Wunderground v.1.15,2013-12-12 07:45:00,
2013-12-12 02:50:00,35.4,20.4,30.25,NNE,20,2.0,2.0,54,0.00,,,0.00,Wunderground v.1.15,2013-12-12 07:50:00,
2013-12-12 03:00:00,33.7,21.3,30.25,NNE,20,2.0,2.0,60,0.00,,,0.00,Wunderground v.1.15,2013-12-12 08:00:00,
2013-12-12 03:10:00,33.1,21.1,30.24,NNE,20,2.0,2.0,61,0.00,,,0.00,Wunderground v.1.15,2013-12-12 08:10:00,